Time;durP1;ratioP1;P1;durP2;ratioP2;P2;SDS_P1;SDS_P2;PMS_P1;PMS_P2;Temp;Humidity;BMP_temperature;BMP_pressure;BME280_temperature;BME280_humidity;BME280_pressure;Samples;Min_cycle;Max_cycle;Signal;HPM_P1;HPM_P2
2021/08/14 00:02:15;;;;;;;3.47;2.85;;;;;;;14.94;72.22;100297.69;1664000;84;21126;-53
2021/08/14 00:04:42;;;;;;;5.60;3.20;;;;;;;14.93;72.58;100298.64;1661966;84;21125;-56
2021/08/14 00:07:10;;;;;;;3.58;3.08;;;;;;;14.93;72.39;100304.94;1701207;82;21042;-55
2021/08/14 00:09:36;;;;;;;5.55;2.55;;;;;;;14.92;72.34;100300.48;1703129;82;21141;-54
2021/08/14 00:12:06;;;;;;;10.90;3.02;;;;;;;14.90;72.43;100299.69;1697143;82;21315;-56
2021/08/14 00:14:34;;;;;;;4.20;3.80;;;;;;;14.90;72.43;100309.17;1695712;82;21010;-54
2021/08/14 00:17:02;;;;;;;4.87;3.00;;;;;;;14.87;72.15;100303.07;1703175;82;21189;-53
2021/08/14 00:19:29;;;;;;;2.87;2.37;;;;;;;14.84;72.51;100308.17;1696297;82;20926;-54
2021/08/14 00:21:56;;;;;;;3.75;2.95;;;;;;;14.81;72.47;100300.20;1698217;82;21200;-54
2021/08/14 00:24:23;;;;;;;3.85;2.62;;;;;;;14.81;72.47;100300.20;1665222;83;20990;-54
2021/08/14 00:26:51;;;;;;;8.23;2.70;;;;;;;14.82;72.24;100311.45;1710119;82;20970;-54
2021/08/14 00:29:18;;;;;;;3.85;2.47;;;;;;;14.81;72.21;100316.47;1665982;84;21096;-57
2021/08/14 00:31:45;;;;;;;3.42;3.12;;;;;;;14.78;72.50;100309.89;1669944;84;21017;-53
2021/08/14 00:34:11;;;;;;;9.43;3.75;;;;;;;14.78;72.50;100309.89;1665403;84;21091;-54
2021/08/14 00:36:37;;;;;;;7.08;3.37;;;;;;;14.76;72.26;100320.81;1699619;82;20987;-55
2021/08/14 00:39:05;;;;;;;3.90;2.17;;;;;;;14.74;72.29;100320.49;1701906;82;20923;-53
2021/08/14 00:41:32;;;;;;;5.28;2.72;;;;;;;14.73;72.23;100322.80;1701763;82;20923;-54
2021/08/14 00:44:01;;;;;;;4.62;2.55;;;;;;;14.73;72.23;100326.86;1705221;82;20884;-54
2021/08/14 00:46:28;;;;;;;4.40;2.72;;;;;;;14.73;72.24;100330.94;1700365;82;21545;-54
2021/08/14 00:48:56;;;;;;;4.45;2.52;;;;;;;14.71;72.24;100331.05;1694796;82;21069;-54
2021/08/14 00:51:23;;;;;;;2.87;2.58;;;;;;;14.71;72.29;100324.27;1663738;84;20879;-55
2021/08/14 00:53:50;;;;;;;2.60;2.40;;;;;;;14.68;72.32;100317.66;1670225;83;20883;-54
2021/08/14 00:56:21;;;;;;;3.95;2.75;;;;;;;14.68;72.27;100325.78;1653621;84;20971;-54
2021/08/14 00:58:49;;;;;;;4.25;2.85;;;;;;;14.68;72.23;100333.04;1667605;83;21816;-53
2021/08/14 01:01:17;;;;;;;5.90;3.62;;;;;;;14.65;72.12;100334.55;1670891;83;20973;-56
2021/08/14 01:03:44;;;;;;;2.70;2.42;;;;;;;14.62;72.08;100341.52;1668214;83;20995;-56
2021/08/14 01:06:15;;;;;;;4.35;2.85;;;;;;;14.57;72.08;100330.92;1664450;83;20930;-55
2021/08/14 01:08:46;;;;;;;3.17;2.83;;;;;;;14.54;72.18;100339.23;1666284;83;21921;-55
2021/08/14 01:11:13;;;;;;;5.87;2.33;;;;;;;14.52;72.35;100342.98;1669235;83;21108;-53
2021/08/14 01:13:41;;;;;;;4.53;2.55;;;;;;;14.52;72.61;100333.50;1705473;81;20915;-55
2021/08/14 01:16:07;;;;;;;9.10;2.62;;;;;;;14.52;72.70;100337.56;1709091;81;20996;-55
2021/08/14 01:18:42;;;;;;;5.20;2.70;;;;;;;14.51;72.75;100331.27;1670567;83;20918;-56
2021/08/14 01:21:09;;;;;;;;;;;;;;;14.52;72.69;100330.79;1675771;83;21136;-55
2021/08/14 01:23:35;;;;;;;3.90;3.50;;;;;;;14.52;72.56;100334.38;1658012;84;21140;-55
2021/08/14 01:26:09;;;;;;;5.53;3.47;;;;;;;14.49;72.56;100335.01;1657776;84;20998;-55
2021/08/14 01:28:36;;;;;;;7.55;3.42;;;;;;;14.46;72.58;100333.84;1658357;84;20995;-54
2021/08/14 01:31:06;;;;;;;6.00;2.47;;;;;;;14.44;72.56;100345.23;1659844;84;20911;-56
2021/08/14 01:33:35;;;;;;;5.67;2.95;;;;;;;14.42;72.57;100337.66;1673416;83;21506;-58
2021/08/14 01:36:03;;;;;;;7.87;2.80;;;;;;;14.42;72.43;100344.44;1658600;84;21761;-59
2021/08/14 01:38:30;;;;;;;5.12;2.12;;;;;;;14.41;72.42;100342.68;1658748;84;21148;-60
2021/08/14 01:40:57;;;;;;;3.58;2.00;;;;;;;14.35;72.34;100339.80;1706334;81;21255;-59
2021/08/14 01:43:23;;;;;;;5.37;2.25;;;;;;;14.35;72.34;100339.80;1708034;81;21598;-61
2021/08/14 01:45:49;;;;;;;4.62;2.77;;;;;;;14.33;72.36;100340.36;1669670;83;21113;-58
2021/08/14 01:48:17;;;;;;;4.33;2.75;;;;;;;14.30;72.40;100345.45;1708906;81;22032;-57
2021/08/14 01:50:45;;;;;;;4.12;2.83;;;;;;;14.29;72.43;100350.98;1671482;83;21289;-57
2021/08/14 01:53:13;;;;;;;4.20;1.95;;;;;;;14.25;72.42;100342.61;1667484;83;21041;-58
2021/08/14 01:55:40;;;;;;;3.35;2.35;;;;;;;14.22;72.41;100341.41;1644342;84;21132;-60
2021/08/14 01:58:06;;;;;;;5.45;2.12;;;;;;;14.19;72.30;100342.47;1671383;83;21084;-60
2021/08/14 02:00:34;;;;;;;4.40;2.67;;;;;;;14.17;72.30;100338.09;1660272;83;21116;-56
2021/08/14 02:03:01;;;;;;;3.25;2.33;;;;;;;14.17;72.36;100344.86;1666745;83;21093;-60
2021/08/14 02:05:27;;;;;;;3.62;2.40;;;;;;;14.14;72.41;100343.17;1662836;84;21113;-61
2021/08/14 02:07:55;;;;;;;4.62;2.25;;;;;;;14.09;72.39;100341.21;1697426;82;21121;-60
2021/08/14 02:10:22;;;;;;;3.15;2.70;;;;;;;14.09;72.39;100341.21;1698127;82;21113;-56
2021/08/14 02:12:48;;;;;;;3.08;2.15;;;;;;;14.09;72.38;100343.04;1703943;82;21740;-58
2021/08/14 02:15:15;;;;;;;3.90;1.65;;;;;;;14.05;72.42;100343.66;1706835;82;21466;-59
2021/08/14 02:17:43;;;;;;;7.10;2.22;;;;;;;14.01;72.46;100336.20;1694303;82;21515;-58
2021/08/14 02:20:10;;;;;;;2.70;2.05;;;;;;;14.01;72.42;100333.50;1695151;82;21718;-57
2021/08/14 02:22:37;;;;;;;4.50;2.67;;;;;;;13.97;72.42;100334.60;1699195;82;21351;-60
2021/08/14 02:25:05;;;;;;;4.12;2.20;;;;;;;13.96;72.44;100336.03;1696382;82;22186;-60
2021/08/14 02:27:31;;;;;;;7.60;3.10;;;;;;;13.94;72.52;100332.55;1698734;82;21038;-60
2021/08/14 02:29:59;;;;;;;2.58;2.35;;;;;;;13.92;72.57;100333.98;1699613;82;21049;-58
2021/08/14 02:32:26;;;;;;;3.95;2.52;;;;;;;13.90;72.59;100338.59;1693780;82;21563;-60
2021/08/14 02:34:52;;;;;;;6.17;2.85;;;;;;;13.89;72.61;100342.25;1712777;82;21738;-59
2021/08/14 02:37:19;;;;;;;5.22;3.08;;;;;;;13.88;72.63;100342.33;1700132;82;21685;-60
2021/08/14 02:39:46;;;;;;;5.28;2.65;;;;;;;13.85;72.66;100345.21;1704303;82;21659;-59
2021/08/14 02:42:12;;;;;;;5.12;2.35;;;;;;;13.82;72.69;100342.18;1699423;82;22237;-60
2021/08/14 02:44:40;;;;;;;2.55;2.35;;;;;;;13.80;72.72;100344.56;1697186;82;21320;-59
2021/08/14 02:47:08;;;;;;;3.85;1.82;;;;;;;13.77;72.86;100344.73;1699649;82;21114;-60
2021/08/14 02:49:34;;;;;;;3.05;2.10;;;;;;;13.76;72.97;100346.56;1693921;82;21725;-60
2021/08/14 02:52:02;;;;;;;1.90;1.40;;;;;;;13.74;73.31;100342.18;1703337;82;21483;-58
2021/08/14 02:54:29;;;;;;;4.87;2.62;;;;;;;13.74;73.31;100342.18;1701439;82;21140;-58
2021/08/14 02:56:55;;;;;;;4.15;2.37;;;;;;;13.74;73.23;100335.41;1694901;82;21065;-59
2021/08/14 02:59:21;;;;;;;4.40;3.08;;;;;;;13.73;73.25;100339.95;1707813;81;21064;-57
2021/08/14 03:01:48;;;;;;;3.27;2.85;;;;;;;13.74;73.25;100344.89;1675033;83;21635;-57
2021/08/14 03:04:14;;;;;;;3.10;2.10;;;;;;;13.72;73.35;100342.73;1678723;83;21089;-57
2021/08/14 03:06:40;;;;;;;2.05;1.85;;;;;;;13.72;73.43;100333.26;1681269;83;21041;-60
2021/08/14 03:09:08;;;;;;;3.58;2.10;;;;;;;13.74;73.58;100325.47;1678409;83;21104;-58
2021/08/14 03:11:37;;;;;;;5.00;2.25;;;;;;;13.75;73.57;100338.05;1677442;83;21092;-58
2021/08/14 03:14:05;;;;;;;2.22;1.85;;;;;;;13.77;73.74;100330.73;1658993;84;22503;-57
2021/08/14 03:16:33;;;;;;;5.12;2.50;;;;;;;13.79;73.87;100338.75;1654448;84;21046;-61
2021/08/14 03:19:01;;;;;;;2.67;1.82;;;;;;;13.81;73.95;100336.37;1656002;84;21097;-61
2021/08/14 03:21:29;;;;;;;4.30;2.25;;;;;;;13.83;74.00;100336.29;1659208;84;21109;-60
2021/08/14 03:23:55;;;;;;;3.75;2.37;;;;;;;13.83;74.02;100330.41;1677505;83;21072;-60
2021/08/14 03:26:25;;;;;;;5.22;2.50;;;;;;;13.84;74.02;100329.45;1678439;83;21100;-60
2021/08/14 03:28:52;;;;;;;6.08;2.50;;;;;;;13.83;74.07;100326.82;1675635;83;21465;-58
2021/08/14 03:31:20;;;;;;;3.55;2.30;;;;;;;13.83;74.12;100323.64;1679595;83;21638;-57
2021/08/14 03:33:47;;;;;;;8.13;3.17;;;;;;;13.85;74.23;100327.63;1678574;83;21013;-58
2021/08/14 03:36:14;;;;;;;2.58;1.80;;;;;;;13.87;74.42;100336.52;1674842;83;20945;-58
2021/08/14 03:38:40;;;;;;;3.77;2.05;;;;;;;13.90;74.54;100337.72;1682797;83;21502;-58
2021/08/14 03:41:08;;;;;;;3.47;1.70;;;;;;;13.93;74.70;100327.62;1673382;83;20943;-58
2021/08/14 03:43:37;;;;;;;2.05;1.65;;;;;;;13.97;74.87;100335.95;1671991;83;21097;-60
2021/08/14 03:46:04;;;;;;;3.98;2.75;;;;;;;14.01;74.97;100329.91;1667622;83;21156;-60
2021/08/14 03:48:31;;;;;;;3.20;2.58;;;;;;;14.07;75.04;100330.05;1673495;83;21507;-58
2021/08/14 03:50:58;;;;;;;3.52;2.20;;;;;;;14.12;75.11;100335.61;1670019;83;21066;-58
2021/08/14 03:53:24;;;;;;;4.28;1.80;;;;;;;14.19;75.25;100332.12;1667924;83;21066;-61
2021/08/14 03:55:50;;;;;;;4.12;1.70;;;;;;;14.23;75.34;100336.39;1673142;83;20982;-58
2021/08/14 03:58:17;;;;;;;3.02;2.58;;;;;;;14.29;75.41;100333.38;1673618;83;20903;-59
2021/08/14 04:00:43;;;;;;;4.15;2.22;;;;;;;14.35;75.52;100331.68;1665705;84;20903;-57
2021/08/14 04:03:09;;;;;;;4.67;2.30;;;;;;;14.43;75.58;100334.88;1671922;84;21109;-62
2021/08/14 04:05:35;;;;;;;2.77;2.33;;;;;;;14.61;75.76;100336.58;1656836;84;21500;-60
2021/08/14 04:08:02;;;;;;;5.53;2.70;;;;;;;14.72;76.21;100337.30;1663357;84;20918;-60
2021/08/14 04:10:28;;;;;;;3.30;2.95;;;;;;;14.72;76.21;100337.30;1704064;82;21382;-60
2021/08/14 04:12:56;;;;;;;4.37;3.52;;;;;;;14.85;76.21;100334.32;1710193;82;21480;-58
2021/08/14 04:15:23;;;;;;;5.03;2.98;;;;;;;14.98;76.28;100329.94;1697416;82;21128;-60
2021/08/14 04:17:49;;;;;;;3.60;2.20;;;;;;;15.12;76.38;100331.39;1704164;82;21033;-60
2021/08/14 04:20:17;;;;;;;2.35;1.75;;;;;;;15.28;76.38;100338.16;1707566;82;21091;-57
2021/08/14 04:22:43;;;;;;;3.72;2.80;;;;;;;15.46;76.20;100334.37;1712518;82;21085;-60
2021/08/14 04:25:09;;;;;;;3.35;2.42;;;;;;;15.67;75.94;100338.14;1703933;82;21531;-59
2021/08/14 04:27:36;;;;;;;5.45;2.67;;;;;;;15.89;75.62;100336.77;1700125;82;21079;-57
2021/08/14 04:30:04;;;;;;;2.95;2.62;;;;;;;16.11;75.25;100327.30;1709429;82;21106;-61
2021/08/14 04:32:34;;;;;;;6.47;3.90;;;;;;;16.31;74.89;100336.92;1705240;82;21021;-58
2021/08/14 04:35:11;;;;;;;5.37;3.45;;;;;;;16.55;73.97;100339.45;1700611;82;21074;-61
2021/08/14 04:37:37;;;;;;;3.75;3.45;;;;;;;16.85;73.24;100337.98;1701183;82;21070;-58
2021/08/14 04:40:06;;;;;;;4.55;3.80;;;;;;;17.05;72.44;100329.42;1703683;82;21132;-59
2021/08/14 04:42:33;;;;;;;4.37;4.05;;;;;;;17.16;71.43;100332.31;1706794;82;20896;-58
2021/08/14 04:45:02;;;;;;;5.03;3.37;;;;;;;17.22;70.24;100332.37;1699557;82;21393;-59
2021/08/14 04:47:29;;;;;;;4.70;3.12;;;;;;;17.24;69.05;100330.44;1701262;82;20887;-61
2021/08/14 04:49:55;;;;;;;5.85;2.47;;;;;;;17.23;68.57;100335.00;1699230;82;20972;-58
2021/08/14 04:52:23;;;;;;;3.62;1.72;;;;;;;17.24;68.13;100331.31;1693779;82;21622;-61
2021/08/14 04:54:49;;;;;;;3.10;2.40;;;;;;;17.28;67.69;100336.05;1697340;82;21495;-62
2021/08/14 04:57:16;;;;;;;5.78;3.10;;;;;;;17.32;67.72;100330.80;1695772;82;21058;-62
2021/08/14 04:59:43;;;;;;;6.00;2.42;;;;;;;17.36;67.75;100333.20;1662204;84;21077;-62
2021/08/14 05:02:09;;;;;;;6.70;2.85;;;;;;;17.44;67.50;100333.20;1654949;84;21044;-59
2021/08/14 05:04:35;;;;;;;6.25;2.40;;;;;;;17.48;66.69;100330.16;1665325;83;21108;-60
2021/08/14 05:07:04;;;;;;;5.92;2.75;;;;;;;17.55;66.12;100333.33;1661288;84;21120;-56
2021/08/14 05:09:31;;;;;;;3.47;2.27;;;;;;;17.61;66.07;100330.17;1662986;84;21595;-61
2021/08/14 05:11:58;;;;;;;3.27;2.87;;;;;;;17.66;65.98;100329.42;1700217;82;21073;-58
2021/08/14 05:14:24;;;;;;;2.95;2.20;;;;;;;17.74;65.93;100334.73;1701921;82;22398;-61
2021/08/14 05:16:52;;;;;;;3.33;1.92;;;;;;;17.83;65.88;100331.86;1702258;82;21443;-62
2021/08/14 05:19:20;;;;;;;4.03;2.00;;;;;;;17.93;66.16;100327.53;1668753;83;21362;-61
2021/08/14 05:21:47;;;;;;;2.27;2.17;;;;;;;18.03;66.22;100335.42;1692742;82;21420;-58
2021/08/14 05:24:14;;;;;;;4.55;2.20;;;;;;;18.13;66.17;100318.81;1662296;84;20922;-62
2021/08/14 05:26:42;;;;;;;2.80;2.58;;;;;;;18.25;66.20;100327.11;1664683;83;21065;-60
2021/08/14 05:29:09;;;;;;;2.98;2.77;;;;;;;18.35;66.25;100325.00;1667487;84;22190;-62
2021/08/14 05:31:35;;;;;;;4.65;2.60;;;;;;;18.46;66.40;100328.30;1662276;83;21929;-60
2021/08/14 05:34:04;;;;;;;3.90;3.08;;;;;;;18.58;66.54;100327.46;1663018;84;21684;-60
2021/08/14 05:36:30;;;;;;;2.87;2.58;;;;;;;18.68;66.64;100325.82;1662727;83;20879;-62
2021/08/14 05:38:56;;;;;;;1.80;1.70;;;;;;;18.80;66.36;100330.85;1697519;82;21539;-62
2021/08/14 05:41:23;;;;;;;5.85;2.42;;;;;;;18.90;66.10;100338.75;1663275;83;21540;-61
2021/08/14 05:43:50;;;;;;;3.70;1.35;;;;;;;19.02;65.85;100332.40;1665591;83;21446;-61
2021/08/14 05:46:18;;;;;;;1.70;1.47;;;;;;;19.13;65.56;100330.25;1706258;82;21704;-62
2021/08/14 05:48:46;;;;;;;2.33;1.50;;;;;;;19.26;65.00;100333.80;1697257;81;21570;-62
2021/08/14 05:51:12;;;;;;;2.10;1.40;;;;;;;19.38;64.84;100330.64;1693973;82;21066;-62
2021/08/14 05:53:40;;;;;;;2.42;1.42;;;;;;;19.51;64.46;100328.75;1665895;84;20903;-59
2021/08/14 05:56:06;;;;;;;3.35;1.47;;;;;;;19.64;63.42;100326.84;1706044;82;21022;-61
2021/08/14 05:58:34;;;;;;;1.50;1.20;;;;;;;19.74;62.54;100322.88;1695037;82;21033;-63
2021/08/14 06:01:01;;;;;;;1.25;0.93;;;;;;;19.82;61.65;100328.66;1710361;81;21058;-63
2021/08/14 06:03:34;;;;;;;2.65;1.45;;;;;;;19.87;61.15;100328.66;1716031;81;21588;-62
2021/08/14 06:06:00;;;;;;;5.25;1.72;;;;;;;19.95;60.91;100333.52;1709527;81;21409;-59
2021/08/14 06:08:26;;;;;;;2.35;1.32;;;;;;;20.01;60.75;100325.71;1711466;81;21622;-62
2021/08/14 06:13:42;;;;;;;2.10;1.27;;;;;;;20.21;60.78;100324.16;1797161;78;28051;-63
2021/08/14 06:16:10;;;;;;;2.98;1.70;;;;;;;20.25;60.49;100335.20;1764646;80;21281;-58
2021/08/14 06:18:40;;;;;;;3.17;1.37;;;;;;;20.32;60.07;100333.75;1717913;80;22014;-59
2021/08/14 06:21:06;;;;;;;3.77;1.50;;;;;;;20.39;59.72;100328.20;1768139;80;20945;-64
2021/08/14 06:23:32;;;;;;;1.40;1.20;;;;;;;20.46;58.98;100329.06;1769344;80;20919;-61
2021/08/14 06:25:59;;;;;;;2.95;1.20;;;;;;;20.52;59.02;100332.17;1764297;79;20895;-60
2021/08/14 06:28:25;;;;;;;2.12;1.57;;;;;;;20.60;58.59;100337.89;1764277;79;21263;-58
2021/08/14 06:30:51;;;;;;;2.27;1.25;;;;;;;20.66;58.03;100328.34;1767208;79;21416;-61
2021/08/14 06:33:18;;;;;;;3.35;1.15;;;;;;;20.72;57.90;100329.20;1738103;80;21345;-60
2021/08/14 06:35:44;;;;;;;7.05;1.77;;;;;;;20.79;58.08;100330.45;1685750;83;20978;-63
2021/08/14 06:38:12;;;;;;;3.15;1.35;;;;;;;20.85;57.86;100331.30;1694811;82;20930;-62
2021/08/14 06:40:38;;;;;;;3.45;1.17;;;;;;;20.93;57.80;100334.28;1687475;82;21088;-63
2021/08/14 06:43:05;;;;;;;2.02;1.80;;;;;;;21.01;57.85;100331.78;1694327;82;21180;-59
2021/08/14 06:45:31;;;;;;;1.72;1.35;;;;;;;21.08;57.64;100331.68;1695536;82;21537;-63
2021/08/14 06:47:59;;;;;;;2.20;1.40;;;;;;;21.16;58.06;100329.67;1694385;82;21072;-63
2021/08/14 06:50:26;;;;;;;2.47;1.30;;;;;;;21.25;57.01;100329.44;1696149;82;21100;-61
2021/08/14 06:52:52;;;;;;;4.80;1.30;;;;;;;21.32;56.66;100330.66;1692525;82;21151;-60
2021/08/14 06:55:20;;;;;;;2.37;1.25;;;;;;;21.39;56.95;100325.91;1694916;82;21013;-62
2021/08/14 06:57:47;;;;;;;2.08;1.10;;;;;;;21.46;56.41;100324.39;1690708;82;21071;-58
2021/08/14 07:00:15;;;;;;;2.55;1.45;;;;;;;21.56;56.17;100332.70;1692781;82;21150;-57
2021/08/14 07:02:41;;;;;;;3.15;1.50;;;;;;;21.62;55.76;100329.44;1708170;81;21065;-63
2021/08/14 07:05:09;;;;;;;3.37;1.40;;;;;;;21.69;54.90;100326.53;1679481;83;21137;-62
2021/08/14 07:07:35;;;;;;;3.20;1.50;;;;;;;21.77;54.79;100321.80;1666454;83;21591;-58
2021/08/14 07:10:06;;;;;;;4.33;1.20;;;;;;;21.83;54.48;100317.16;1696118;82;21159;-62
2021/08/14 07:12:32;;;;;;;3.20;1.20;;;;;;;21.93;54.58;100325.45;1695408;82;21145;-59
2021/08/14 07:15:00;;;;;;;1.98;1.00;;;;;;;22.00;54.26;100323.45;1685486;82;21523;-58
2021/08/14 07:17:27;;;;;;;3.55;1.65;;;;;;;22.08;54.23;100324.16;1686778;82;21080;-58
2021/08/14 07:19:53;;;;;;;1.60;1.10;;;;;;;22.14;54.11;100316.26;1684557;82;21497;-59
2021/08/14 07:22:21;;;;;;;1.65;1.00;;;;;;;22.22;53.26;100312.34;1689258;82;21363;-58
2021/08/14 07:24:48;;;;;;;1.82;1.10;;;;;;;22.29;53.19;100315.41;1682349;82;21096;-63
2021/08/14 07:27:14;;;;;;;4.10;0.98;;;;;;;22.37;52.26;100308.73;1687456;82;21633;-61
2021/08/14 07:29:41;;;;;;;1.00;0.80;;;;;;;22.44;51.97;100314.08;1693376;82;21097;-62
2021/08/14 07:32:07;;;;;;;1.27;1.00;;;;;;;22.53;51.41;100309.14;1695470;82;21126;-61
2021/08/14 07:34:36;;;;;;;5.03;0.80;;;;;;;22.61;51.69;100312.08;1696132;82;21287;-60
2021/08/14 07:37:03;;;;;;;3.27;0.90;;;;;;;22.69;50.19;100304.52;1698255;82;21457;-58
2021/08/14 07:39:31;;;;;;;2.85;1.02;;;;;;;22.76;49.27;100305.73;1704555;83;21069;-59
2021/08/14 07:41:57;;;;;;;1.65;0.80;;;;;;;22.85;49.33;100299.92;1700703;82;21081;-61
2021/08/14 07:44:25;;;;;;;1.75;0.80;;;;;;;22.93;48.53;100298.72;1695963;83;21156;-59
2021/08/14 07:46:51;;;;;;;0.85;0.60;;;;;;;22.99;48.14;100293.53;1701749;82;21447;-59
2021/08/14 07:49:17;;;;;;;0.93;0.70;;;;;;;23.07;47.44;100294.70;1706331;82;21085;-61
2021/08/14 07:51:44;;;;;;;1.52;0.70;;;;;;;23.13;47.08;100296.91;1733667;80;21104;-58
2021/08/14 07:54:10;;;;;;;1.95;0.70;;;;;;;23.19;46.74;100288.97;1736497;80;21100;-60
2021/08/14 07:56:36;;;;;;;2.42;0.60;;;;;;;23.26;46.56;100282.40;1741225;80;21419;-60
2021/08/14 07:59:02;;;;;;;1.10;0.60;;;;;;;23.28;43.49;100281.25;1737752;80;21072;-62
2021/08/14 08:01:29;;;;;;;2.65;0.80;;;;;;;23.28;44.13;100284.50;1734092;80;21049;-60
2021/08/14 08:03:55;;;;;;;1.87;0.80;;;;;;;23.29;43.96;100277.50;1737732;80;21042;-61
2021/08/14 08:06:21;;;;;;;2.80;0.78;;;;;;;23.31;44.13;100286.44;1736538;80;21577;-61
2021/08/14 08:08:48;;;;;;;2.55;0.50;;;;;;;23.35;43.87;100285.16;1736406;80;21499;-63
2021/08/14 08:11:15;;;;;;;0.68;0.60;;;;;;;23.39;44.12;100279.73;1741082;80;21049;-59
2021/08/14 08:13:41;;;;;;;0.70;0.60;;;;;;;23.45;43.95;100274.69;1731363;81;21050;-58
2021/08/14 08:16:07;;;;;;;4.58;0.60;;;;;;;23.51;43.27;100268.14;1723665;81;21100;-59
2021/08/14 08:18:34;;;;;;;2.92;0.70;;;;;;;23.57;42.44;100273.55;1723998;81;21509;-58
2021/08/14 08:21:00;;;;;;;1.40;0.70;;;;;;;23.64;41.63;100278.86;1728855;81;21082;-62
2021/08/14 08:23:26;;;;;;;0.90;0.70;;;;;;;23.70;41.66;100278.27;1729339;81;21081;-63
2021/08/14 08:25:53;;;;;;;0.85;0.60;;;;;;;23.77;42.24;100271.17;1730561;81;21112;-63
2021/08/14 08:28:21;;;;;;;0.75;0.53;;;;;;;23.86;42.75;100274.43;1652704;84;21073;-63
2021/08/14 08:30:48;;;;;;;0.70;0.50;;;;;;;23.96;43.22;100271.17;1732574;81;21151;-61
2021/08/14 08:33:15;;;;;;;0.78;0.60;;;;;;;24.04;42.40;100276.80;1722972;81;22517;-61
2021/08/14 08:35:42;;;;;;;2.72;0.62;;;;;;;24.11;42.25;100265.56;1732096;81;21299;-59
2021/08/14 08:38:08;;;;;;;1.47;0.70;;;;;;;24.16;41.54;100269.23;1655829;85;21118;-61
2021/08/14 08:40:40;;;;;;;0.70;0.60;;;;;;;24.17;41.61;100257.72;1647984;85;21538;-60
2021/08/14 08:43:07;;;;;;;1.92;0.70;;;;;;;24.18;41.30;100262.20;1664926;85;21054;-59
2021/08/14 08:45:34;;;;;;;1.37;0.60;;;;;;;24.16;40.91;100262.89;1665875;84;21101;-60
2021/08/14 08:48:04;;;;;;;3.90;1.52;;;;;;;24.15;41.10;100262.02;1665993;84;21098;-59
2021/08/14 08:50:30;;;;;;;1.00;0.60;;;;;;;24.19;42.08;100255.19;1672863;84;21285;-60
2021/08/14 08:52:57;;;;;;;0.90;0.60;;;;;;;24.27;41.28;100255.34;1667070;84;21076;-59
2021/08/14 08:55:24;;;;;;;1.25;0.60;;;;;;;24.34;41.78;100248.22;1661413;84;21160;-59
2021/08/14 08:57:50;;;;;;;0.88;0.68;;;;;;;24.43;41.91;100253.33;1664774;84;22140;-59
2021/08/14 09:00:17;;;;;;;0.80;0.60;;;;;;;24.52;41.33;100248.30;1663820;83;20987;-57
2021/08/14 09:02:46;;;;;;;0.60;0.50;;;;;;;24.61;41.88;100255.66;1669373;84;21440;-60
2021/08/14 09:05:18;;;;;;;2.25;0.60;;;;;;;24.72;41.84;100249.09;1654551;84;21658;-59
2021/08/14 09:07:46;;;;;;;1.17;0.60;;;;;;;24.82;41.64;100250.79;1717561;81;21422;-58
2021/08/14 09:10:20;;;;;;;1.65;0.88;;;;;;;24.91;40.45;100248.13;1642462;84;21852;-60
2021/08/14 09:12:46;;;;;;;1.02;0.60;;;;;;;24.92;39.83;100252.66;1719175;80;21079;-62
2021/08/14 09:15:29;;;;;;;2.08;1.17;;;;;;;24.89;40.22;100249.66;1717209;81;21078;-58
2021/08/14 09:18:02;;;;;;;1.35;0.70;;;;;;;24.85;40.00;100251.84;1714864;81;20962;-57
2021/08/14 09:20:30;;;;;;;2.35;0.70;;;;;;;24.84;41.46;100247.86;1718576;81;21137;-59
2021/08/14 09:23:13;;;;;;;3.27;0.60;;;;;;;24.88;40.65;100241.04;1723041;81;21097;-59
2021/08/14 09:25:41;;;;;;;3.33;0.65;;;;;;;24.92;39.71;100251.28;1721741;81;21787;-58
2021/08/14 09:28:08;;;;;;;1.00;0.60;;;;;;;24.91;39.77;100236.64;1717335;81;21444;-56
2021/08/14 09:30:56;;;;;;;2.15;0.80;;;;;;;24.93;39.82;100230.95;1723964;81;21499;-59
2021/08/14 09:33:25;;;;;;;4.47;2.55;;;;;;;24.98;40.32;100234.14;1719988;81;20975;-56
2021/08/14 09:36:03;;;;;;;1.37;0.70;;;;;;;25.06;41.16;100228.72;1719480;81;21569;-59
2021/08/14 09:38:49;;;;;;;0.70;0.60;;;;;;;25.17;40.32;100240.91;1721241;81;21365;-57
2021/08/14 09:41:22;;;;;;;0.70;0.60;;;;;;;25.21;39.06;100235.42;1716609;81;21086;-57
2021/08/14 09:43:51;;;;;;;1.60;0.50;;;;;;;25.18;39.77;100226.95;1720516;81;21515;-58
2021/08/14 09:46:17;;;;;;;0.72;0.60;;;;;;;25.19;39.55;100222.30;1725590;81;20949;-57
2021/08/14 09:48:55;;;;;;;0.80;0.60;;;;;;;25.22;39.07;100222.00;1726925;81;21484;-59
2021/08/14 09:51:30;;;;;;;2.30;0.60;;;;;;;25.23;39.02;100220.98;1722363;81;20971;-58
2021/08/14 09:53:59;;;;;;;1.40;0.80;;;;;;;25.22;39.38;100220.12;1720437;81;20957;-58
2021/08/14 09:56:26;;;;;;;0.80;0.55;;;;;;;25.26;39.67;100211.88;1723235;81;20993;-58
2021/08/14 09:58:53;;;;;;;2.00;0.60;;;;;;;25.32;38.57;100206.78;1721561;81;20950;-60
2021/08/14 10:01:19;;;;;;;1.98;1.00;;;;;;;25.35;39.47;100214.74;1724066;81;21769;-57
2021/08/14 10:03:46;;;;;;;0.70;0.50;;;;;;;25.43;40.05;100210.18;1719106;81;21277;-57
2021/08/14 10:06:14;;;;;;;1.50;0.60;;;;;;;25.50;39.11;100209.03;1718967;81;21547;-58
2021/08/14 10:08:40;;;;;;;1.22;0.60;;;;;;;25.54;38.43;100202.16;1719453;81;20975;-58
2021/08/14 10:11:14;;;;;;;1.90;0.60;;;;;;;25.54;38.12;100203.02;1719532;81;20991;-57
2021/08/14 10:13:42;;;;;;;1.40;1.00;;;;;;;25.54;38.61;100200.27;1725605;81;22449;-59
2021/08/14 10:16:12;;;;;;;4.10;2.62;;;;;;;25.58;37.99;100198.94;1725559;80;21294;-59
2021/08/14 10:18:40;;;;;;;0.70;0.60;;;;;;;25.62;38.95;100193.48;1734553;81;20954;-61
2021/08/14 10:21:13;;;;;;;1.67;0.50;;;;;;;25.68;38.08;100194.75;1724648;80;20975;-60
2021/08/14 10:23:40;;;;;;;1.90;1.52;;;;;;;25.72;37.32;100194.77;1673249;84;21062;-58
2021/08/14 10:26:14;;;;;;;0.72;0.60;;;;;;;25.73;37.84;100193.74;1671363;84;21540;-59
2021/08/14 10:28:51;;;;;;;0.50;0.50;;;;;;;25.74;37.50;100195.48;1704530;83;21121;-60
2021/08/14 10:31:36;;;;;;;1.05;0.50;;;;;;;25.69;36.45;100186.80;1701710;82;21201;-58
2021/08/14 10:34:17;;;;;;;0.57;0.40;;;;;;;25.65;37.29;100181.78;1704705;82;21551;-59
2021/08/14 10:36:46;;;;;;;0.57;0.50;;;;;;;25.63;35.64;100175.05;1705942;82;21143;-58
2021/08/14 10:39:22;;;;;;;0.70;0.60;;;;;;;25.60;34.61;100178.14;1671472;84;21094;-57
2021/08/14 10:41:55;;;;;;;0.80;0.60;;;;;;;25.61;36.32;100177.96;1731642;81;21094;-58
2021/08/14 10:44:37;;;;;;;0.53;0.50;;;;;;;25.65;36.49;100181.78;1736008;81;21022;-59
2021/08/14 10:47:05;;;;;;;0.70;0.60;;;;;;;25.68;35.87;100175.45;1731580;80;21467;-60
2021/08/14 10:49:39;;;;;;;0.50;0.40;;;;;;;25.72;36.71;100174.09;1733956;81;21061;-60
2021/08/14 10:52:07;;;;;;;0.57;0.50;;;;;;;25.79;36.51;100172.41;1734072;80;22120;-59
2021/08/14 10:54:57;;;;;;;3.22;0.60;;;;;;;25.86;35.27;100166.59;1733770;80;21057;-59
2021/08/14 10:57:41;;;;;;;2.92;0.42;;;;;;;25.89;35.39;100166.80;1737334;80;21002;-61
2021/08/14 11:00:22;;;;;;;7.83;0.62;;;;;;;25.93;35.31;100166.84;1734929;81;21089;-60
2021/08/14 11:03:03;;;;;;;6.55;0.98;;;;;;;25.97;35.39;100169.09;1734221;81;21575;-62
2021/08/14 11:05:30;;;;;;;0.68;0.50;;;;;;;26.03;35.98;100175.84;1733789;81;21470;-62
2021/08/14 11:08:00;;;;;;;1.42;0.60;;;;;;;26.05;35.53;100162.77;1729598;80;21097;-63
2021/08/14 11:10:35;;;;;;;1.75;0.50;;;;;;;26.09;35.73;100172.46;1669483;84;21520;-62
2021/08/14 11:13:03;;;;;;;0.65;0.50;;;;;;;26.14;35.94;100163.67;1724714;80;20997;-58
2021/08/14 11:15:40;;;;;;;0.82;0.50;;;;;;;26.15;34.81;100160.77;1718879;81;21066;-61
2021/08/14 11:18:06;;;;;;;0.70;0.70;;;;;;;26.16;35.05;100162.50;1723128;81;21063;-59
2021/08/14 11:20:37;;;;;;;0.50;0.50;;;;;;;26.17;35.47;100164.23;1717778;81;21140;-60
2021/08/14 11:23:24;;;;;;;0.60;0.50;;;;;;;26.19;35.97;100161.31;1720148;81;21648;-63
2021/08/14 11:25:50;;;;;;;0.55;0.40;;;;;;;26.23;35.58;100157.17;1715695;81;21505;-61
2021/08/14 11:28:28;;;;;;;0.57;0.50;;;;;;;26.27;34.70;100151.73;1727329;81;21645;-59
2021/08/14 11:31:01;;;;;;;2.50;0.40;;;;;;;26.29;32.98;100152.41;1720982;81;21155;-61
2021/08/14 11:36:08;;;;;;;0.50;0.50;;;;;;;26.23;33.56;100138.73;1845400;75;22495;-59